Sauk Rapids, MN (56379)

1:55 PM CST on February 08, 2016 (GMT -0600)
4.53 Mi East of Sauk Rapids,MN | | Change Station
CLOSE
Current Station
Personal Weather Station
Location: Sauk Rapids, MN
Elevation: 1036 ft
Nearby Weather Stations

Elev 1036 ft 45.61 °N, 94.07 °W | Updated 4 seconds ago

Overcast
Overcast
14.4 °F
Feels Like -2 °F
N
18.0
Wind Variable Wind from NNW
Gusts 18.0 mph

Today
High -- | Low -- °F
--% Chance of Precip.
Yesterday
High -- | Low -- °F
Precip. -- in
Pressure 30.05 in
Visibility 10.0 miles
Clouds Overcast 3000 ft
Windchill -2 °F
Dew Point 7 °F
Humidity 71%
Rainfall 0.00 in
Snow Depth Not available.
7:29 AM 5:32 PM
New Moon, 0% visible
METAR KSTC 081853Z 32018G26KT 10SM OVC030 M11/M16 A2996 RMK AO2 PK WND 31026/1834 SNE06 SLP174 P0000 T11061161
Pressure 30.05 in
Visibility 10.0 miles
Clouds Overcast 3000 ft
Windchill -2 °F
Dew Point 7 °F
Humidity 71%
Rainfall 0.00 in
Snow Depth Not available.
7:29 AM 5:32 PM
New Moon, 0% visible
METAR KSTC 081853Z 32018G26KT 10SM OVC030 M11/M16 A2996 RMK AO2 PK WND 31026/1834 SNE06 SLP174 P0000 T11061161

10-Day Weather Forecast

Almanac

Astronomy

Feb. 08, 2016 Rise Set
Actual Time
Civil Twilight
Nautical Twilight
Astronomical Twilight
Moon
Length of Visible Light
Length of Day
Tomorrow will be .
, % of the Moon is Illuminated

Today's Extremes

State Highs State Lows

Community

WunderPhotos

Upload Photos

1,891,499 photos uploaded!

WunderBlog® & News

Nearby

Air Quality

  Air Quality AQ Index Pollutant
Not available.

Snow Depth

Station Depth Elevation

Earthquake Activity

City Distance Mag. Time & Date
Minimum magnitude displayed is 2.5.

Coastal Water Temperatures

Place Temperature

Stations

Nearby Weather Stations

Station Location Temp. Windchill Dew Point Humidity Wind Precip. Elev Updated Type
                   

Watches & Warnings

There are currently no watches in effect.